createdAt,value
2022-11-16T00:02:07.138Z,100731.56
2022-11-16T00:04:33.875Z,100732.34
2022-11-16T00:07:02.848Z,100726.59
2022-11-16T00:09:31.950Z,100721.63
2022-11-16T00:12:01.173Z,100730.25
2022-11-16T00:14:30.743Z,100720.59
2022-11-16T00:16:58.127Z,100719.06
2022-11-16T00:19:25.980Z,100714.84
2022-11-16T00:21:53.422Z,100710.16
2022-11-16T00:24:21.655Z,100713.34
2022-11-16T00:26:48.709Z,100711.09
2022-11-16T00:29:22.231Z,100702.16
2022-11-16T00:31:49.544Z,100710.31
2022-11-16T00:34:17.113Z,100704.63
2022-11-16T00:36:44.042Z,100704.31
2022-11-16T00:39:14.735Z,100704.31
2022-11-16T00:41:42.373Z,100701.25
2022-11-16T00:44:09.576Z,100711.41
2022-11-16T00:46:36.118Z,100709.13
2022-11-16T00:49:03.272Z,100701.41
2022-11-16T00:51:29.739Z,100698.69
2022-11-16T00:53:56.294Z,100693.28
2022-11-16T00:56:23.538Z,100691.50
2022-11-16T00:58:50.324Z,100688.03
2022-11-16T01:01:17.179Z,100691.91
2022-11-16T01:03:43.769Z,100695.56
2022-11-16T01:06:13.436Z,100690.13
2022-11-16T01:08:44.562Z,100696.75
2022-11-16T01:11:32.986Z,100699.47
2022-11-16T01:14:02.468Z,100694.19
2022-11-16T01:16:29.422Z,100688.03
2022-11-16T01:18:55.996Z,100692.69
2022-11-16T01:21:23.338Z,100688.03
2022-11-16T01:23:50.378Z,100682.59
2022-11-16T01:26:17.183Z,100681.22
2022-11-16T01:28:43.818Z,100677.31
2022-11-16T01:31:10.493Z,100671.13
2022-11-16T01:33:37.738Z,100666.47
2022-11-16T01:36:14.448Z,100661.50
2022-11-16T01:38:43.362Z,100651.84
2022-11-16T01:41:14.617Z,100651.84
2022-11-16T01:44:01.652Z,100643.69
2022-11-16T01:46:29.859Z,100648.06
2022-11-16T01:49:05.868Z,100628.03
2022-11-16T01:51:34.503Z,100645.84
2022-11-16T01:54:05.297Z,100646.72
2022-11-16T01:56:33.513Z,100646.72
2022-11-16T01:59:00.101Z,100652.88
2022-11-16T02:01:26.699Z,100642.78
2022-11-16T02:03:53.275Z,100645.25
2022-11-16T02:06:44.425Z,100650.66
2022-11-16T02:10:04.118Z,100649.13
2022-11-16T02:12:36.298Z,100653.38
2022-11-16T02:15:23.025Z,100636.00
2022-11-16T02:18:04.813Z,100643.41
2022-11-16T02:20:39.024Z,100638.72
2022-11-16T02:23:33.464Z,100634.97
2022-11-16T02:26:15.164Z,100626.50
2022-11-16T02:29:06.526Z,100610.56
2022-11-16T02:31:40.584Z,100612.19
2022-11-16T02:34:10.210Z,100607.53
2022-11-16T02:36:39.790Z,100599.13
2022-11-16T02:39:12.318Z,100600.31
2022-11-16T02:41:42.694Z,100614.63
2022-11-16T02:44:13.875Z,100618.84
2022-11-16T02:46:46.016Z,100606.94
2022-11-16T02:49:19.423Z,100602.72
2022-11-16T02:51:50.614Z,100604.22
2022-11-16T02:54:19.585Z,100595.81
2022-11-16T02:56:55.459Z,100589.91
2022-11-16T02:59:23.949Z,100589.91
2022-11-16T03:02:08.577Z,100597.00
2022-11-16T03:04:48.737Z,100592.00
2022-11-16T03:07:19.652Z,100589.28
2022-11-16T03:09:49.294Z,100586.59
2022-11-16T03:12:21.415Z,100585.09
2022-11-16T03:15:13.442Z,100585.09
2022-11-16T03:17:46.099Z,100584.34
2022-11-16T03:20:20.671Z,100584.34
2022-11-16T03:22:51.248Z,100593.69
2022-11-16T03:25:20.727Z,100602.59
2022-11-16T03:27:55.634Z,100602.59
2022-11-16T03:30:27.828Z,100603.47
2022-11-16T03:33:01.968Z,100596.06
2022-11-16T03:35:35.005Z,100598.78
2022-11-16T03:38:04.016Z,100600.78
2022-11-16T03:40:34.004Z,100603.59
2022-11-16T03:43:03.017Z,100607.09
2022-11-16T03:45:31.214Z,100605.13
2022-11-16T03:47:57.691Z,100609.03
2022-11-16T03:50:24.376Z,100606.31
2022-11-16T03:52:50.934Z,100609.81
2022-11-16T03:55:17.472Z,100617.63
2022-11-16T03:57:44.269Z,100619.59
2022-11-16T04:00:11.588Z,100618.84
2022-11-16T04:02:38.183Z,100615.38
2022-11-16T04:05:23.655Z,100616.13
2022-11-16T04:08:08.582Z,100617.63
2022-11-16T04:10:53.984Z,100617.03
2022-11-16T04:13:45.243Z,100614.00
2022-11-16T04:16:30.082Z,100618.69
2022-11-16T04:19:15.063Z,100614.78
2022-11-16T04:22:06.035Z,100614.00
2022-11-16T04:24:36.778Z,100622.59
2022-11-16T04:27:26.096Z,100617.63
2022-11-16T04:29:54.429Z,100626.50
2022-11-16T04:32:39.942Z,100614.16
2022-11-16T04:35:25.071Z,100614.16
2022-11-16T04:37:53.389Z,100624.25
2022-11-16T04:40:25.579Z,100616.56
2022-11-16T04:42:53.513Z,100621.69
2022-11-16T04:45:39.736Z,100628.63
2022-11-16T04:48:06.842Z,100632.53
2022-11-16T04:50:34.039Z,100632.53
2022-11-16T04:53:00.760Z,100633.72
2022-11-16T04:55:27.424Z,100633.72
2022-11-16T04:57:53.968Z,100635.69
2022-11-16T05:00:20.693Z,100635.25
2022-11-16T05:02:47.357Z,100643.06
2022-11-16T05:05:14.343Z,100636.44
2022-11-16T05:07:41.143Z,100634.94
2022-11-16T05:10:08.359Z,100637.63
2022-11-16T05:12:35.074Z,100630.25
2022-11-16T05:15:01.583Z,100623.78
2022-11-16T05:17:28.640Z,100623.47
2022-11-16T05:20:13.947Z,100623.03
2022-11-16T05:22:40.411Z,100623.78
2022-11-16T05:25:10.497Z,100628.44
2022-11-16T05:27:37.537Z,100630.41
2022-11-16T05:30:06.629Z,100622.28
2022-11-16T05:32:33.173Z,100620.75
2022-11-16T05:34:59.709Z,100618.81
2022-11-16T05:37:26.828Z,100623.97
2022-11-16T05:39:55.838Z,100621.66
2022-11-16T05:42:23.082Z,100625.88
2022-11-16T05:44:49.807Z,100636.72
2022-11-16T05:47:16.441Z,100620.16
2022-11-16T05:49:42.907Z,100626.31
2022-11-16T05:52:09.644Z,100627.38
2022-11-16T05:54:36.259Z,100613.69
2022-11-16T05:57:02.886Z,100624.41
2022-11-16T05:59:30.106Z,100622.59
2022-11-16T06:01:56.738Z,100622.75
2022-11-16T06:04:24.669Z,100630.16
2022-11-16T06:06:51.686Z,100637.97
2022-11-16T06:09:18.269Z,100630.31
2022-11-16T06:11:44.742Z,100635.00
2022-11-16T06:14:11.276Z,100633.75
2022-11-16T06:16:37.776Z,100628.75
2022-11-16T06:19:04.325Z,100629.22
2022-11-16T06:21:31.017Z,100633.13
2022-11-16T06:23:57.454Z,100634.00
2022-11-16T06:26:23.981Z,100634.44
2022-11-16T06:28:50.483Z,100625.69
2022-11-16T06:31:17.063Z,100630.81
2022-11-16T06:33:43.748Z,100623.25
2022-11-16T06:36:10.298Z,100624.88
2022-11-16T06:38:37.086Z,100620.03
2022-11-16T06:41:04.148Z,100619.84
2022-11-16T06:43:30.833Z,100621.22
2022-11-16T06:45:58.444Z,100619.84
2022-11-16T06:48:25.717Z,100619.66
2022-11-16T06:50:53.067Z,100620.25
2022-11-16T06:53:23.481Z,100620.06
2022-11-16T06:55:52.690Z,100614.19
2022-11-16T06:58:19.411Z,100615.97
2022-11-16T07:00:45.935Z,100621.22
2022-11-16T07:03:12.446Z,100617.31
2022-11-16T07:05:41.041Z,100613.56
2022-11-16T07:08:07.935Z,100620.31
2022-11-16T07:10:34.508Z,100618.94
2022-11-16T07:13:04.700Z,100600.66
2022-11-16T07:15:32.499Z,100619.53
2022-11-16T07:18:06.647Z,100615.59
2022-11-16T07:20:34.440Z,100618.88
2022-11-16T07:23:02.315Z,100614.97
2022-11-16T07:25:29.368Z,100616.28
2022-11-16T07:27:57.985Z,100620.81
2022-11-16T07:30:24.567Z,100620.06
2022-11-16T07:32:51.176Z,100620.59
2022-11-16T07:35:17.824Z,100618.66
2022-11-16T07:37:44.501Z,100608.81
2022-11-16T07:40:11.283Z,100609.88
2022-11-16T07:42:37.844Z,100615.13
2022-11-16T07:45:04.833Z,100611.66
2022-11-16T07:47:36.219Z,100610.25
2022-11-16T07:50:02.893Z,100616.91
2022-11-16T07:52:29.429Z,100614.03
2022-11-16T07:54:55.891Z,100616.00
2022-11-16T07:57:22.400Z,100608.41
2022-11-16T07:59:49.016Z,100611.88
2022-11-16T08:02:15.560Z,100614.84
2022-11-16T08:04:42.227Z,100613.97
2022-11-16T08:07:08.893Z,100611.31
2022-11-16T08:09:37.896Z,100611.91
2022-11-16T08:12:04.917Z,100618.22
2022-11-16T08:14:31.406Z,100611.63
2022-11-16T08:16:57.879Z,100614.75
2022-11-16T08:19:24.335Z,100612.13
2022-11-16T08:21:51.209Z,100612.78
2022-11-16T08:24:18.173Z,100627.28
2022-11-16T08:26:44.912Z,100628.09
2022-11-16T08:29:11.715Z,100624.16
2022-11-16T08:31:38.254Z,100629.22
2022-11-16T08:34:04.965Z,100626.88
2022-11-16T08:36:31.500Z,100630.16
2022-11-16T08:38:58.157Z,100620.56
2022-11-16T08:41:24.659Z,100631.28
2022-11-16T08:43:53.358Z,100626.59
2022-11-16T08:46:20.788Z,100625.91
2022-11-16T08:48:47.614Z,100622.53
2022-11-16T08:51:17.875Z,100622.03
2022-11-16T08:53:48.615Z,100628.34
2022-11-16T08:56:16.434Z,100629.16
2022-11-16T08:58:44.406Z,100626.75
2022-11-16T09:01:14.077Z,100629.25
2022-11-16T09:03:41.552Z,100630.56
2022-11-16T09:06:11.986Z,100633.09
2022-11-16T09:08:40.509Z,100629.09
2022-11-16T09:11:09.105Z,100623.97
2022-11-16T09:13:35.688Z,100636.38
2022-11-16T09:16:03.009Z,100629.66
2022-11-16T09:18:30.492Z,100637.19
2022-11-16T09:20:57.473Z,100636.97
2022-11-16T09:23:25.734Z,100643.94
2022-11-16T09:25:54.500Z,100637.22
2022-11-16T09:28:22.784Z,100641.50
2022-11-16T09:30:51.352Z,100638.75
2022-11-16T09:33:18.590Z,100646.19
2022-11-16T09:35:45.338Z,100648.13
2022-11-16T09:38:16.006Z,100656.06
2022-11-16T09:40:47.175Z,100655.31
2022-11-16T09:43:28.483Z,100648.91
2022-11-16T09:46:00.700Z,100649.19
2022-11-16T09:48:28.216Z,100652.66
2022-11-16T09:51:01.890Z,100648.69
2022-11-16T09:53:43.854Z,100650.19
2022-11-16T09:56:22.776Z,100644.75
2022-11-16T09:59:05.888Z,100649.00
2022-11-16T10:01:40.445Z,100656.44
2022-11-16T10:04:25.948Z,100652.91
2022-11-16T10:07:12.896Z,100652.66
2022-11-16T10:09:39.679Z,100654.91
2022-11-16T10:12:35.378Z,100654.91
2022-11-16T10:15:17.196Z,100658.84
2022-11-16T10:18:13.219Z,100662.31
2022-11-16T10:20:49.171Z,100666.09
2022-11-16T10:23:38.518Z,100655.41
2022-11-16T10:26:20.185Z,100658.94
2022-11-16T10:28:57.338Z,100657.97
2022-11-16T10:31:56.058Z,100661.22
2022-11-16T10:34:30.478Z,100657.22
2022-11-16T10:37:05.146Z,100654.31
2022-11-16T10:39:33.902Z,100651.84
2022-11-16T10:42:07.635Z,100654.88
2022-11-16T10:44:37.445Z,100650.91
2022-11-16T10:47:14.236Z,100649.94
2022-11-16T10:49:50.341Z,100645.22
2022-11-16T10:52:17.078Z,100649.19
2022-11-16T10:54:44.534Z,100642.97
2022-11-16T10:57:14.329Z,100644.78
2022-11-16T10:59:44.479Z,100644.59
2022-11-16T11:02:23.114Z,100639.84
2022-11-16T11:05:20.351Z,100639.84
2022-11-16T11:07:56.802Z,100638.44
2022-11-16T11:10:29.862Z,100640.72
2022-11-16T11:13:12.022Z,100645.25
2022-11-16T11:15:43.006Z,100643.53
2022-11-16T11:18:15.393Z,100641.56
2022-11-16T11:20:45.483Z,100650.00
2022-11-16T11:23:23.828Z,100646.34
2022-11-16T11:25:54.858Z,100644.59
2022-11-16T11:28:28.457Z,100638.44
2022-11-16T11:31:00.980Z,100641.16
2022-11-16T11:33:32.913Z,100644.13
2022-11-16T11:36:25.051Z,100632.78
2022-11-16T11:39:04.762Z,100637.72
2022-11-16T11:41:37.460Z,100634.75
2022-11-16T11:44:06.750Z,100634.78
2022-11-16T11:47:23.669Z,100635.06
2022-11-16T11:49:34.414Z,100629.88
2022-11-16T11:52:08.992Z,100630.88
2022-11-16T11:54:45.999Z,100632.13
2022-11-16T11:57:15.718Z,100638.84
2022-11-16T11:59:42.234Z,100634.66
2022-11-16T12:02:38.852Z,100633.41
2022-11-16T12:05:05.636Z,100633.94
2022-11-16T12:07:50.960Z,100635.44
2022-11-16T12:10:49.140Z,100637.69
2022-11-16T12:13:15.675Z,100635.22
2022-11-16T12:15:51.047Z,100632.03
2022-11-16T12:18:36.591Z,100637.47
2022-11-16T12:21:13.455Z,100630.31
2022-11-16T12:24:01.703Z,100629.09
2022-11-16T12:26:41.263Z,100626.16
2022-11-16T12:29:34.303Z,100624.63
2022-11-16T12:32:34.888Z,100626.16
2022-11-16T12:35:16.708Z,100622.66
2022-11-16T12:37:49.372Z,100623.63
2022-11-16T12:40:35.905Z,100628.81
2022-11-16T12:43:31.206Z,100616.13
2022-11-16T12:46:01.015Z,100616.88
2022-11-16T12:49:02.650Z,100618.81
2022-11-16T12:51:37.465Z,100624.47
2022-11-16T12:54:28.149Z,100631.91
2022-11-16T12:57:21.108Z,100630.63
2022-11-16T13:00:02.524Z,100628.84
2022-11-16T13:03:12.382Z,100635.28
2022-11-16T13:05:49.136Z,100632.78
2022-11-16T13:08:21.313Z,100631.72
2022-11-16T13:10:50.998Z,100634.44
2022-11-16T13:13:49.620Z,100635.44
2022-11-16T13:16:17.395Z,100632.69
2022-11-16T13:18:44.833Z,100635.16
2022-11-16T13:21:28.434Z,100632.91
2022-11-16T13:24:13.562Z,100617.97
2022-11-16T13:26:54.260Z,100617.69
2022-11-16T13:29:30.652Z,100620.66
2022-11-16T13:32:05.284Z,100618.13
2022-11-16T13:34:34.026Z,100617.56
2022-11-16T13:37:00.679Z,100614.28
2022-11-16T13:39:58.056Z,100615.47
2022-11-16T13:42:25.364Z,100613.97
2022-11-16T13:44:53.079Z,100615.16
2022-11-16T13:47:27.393Z,100614.16
2022-11-16T13:50:02.497Z,100612.19
2022-11-16T13:55:41.676Z,100611.44
2022-11-16T13:58:13.120Z,100621.88
2022-11-16T14:00:40.733Z,100610.97
2022-11-16T14:03:16.278Z,100619.34
2022-11-16T14:05:48.428Z,100613.13
2022-11-16T14:08:26.968Z,100617.38
2022-11-16T14:10:53.377Z,100618.59
2022-11-16T14:13:36.387Z,100612.13
2022-11-16T14:16:15.395Z,100610.63
2022-11-16T14:18:42.735Z,100611.38
2022-11-16T14:21:11.850Z,100614.88
2022-11-16T14:23:41.256Z,100607.88
2022-11-16T14:26:48.080Z,100618.03
2022-11-16T14:29:24.154Z,100613.56
2022-11-16T14:31:54.222Z,100610.09
2022-11-16T14:34:26.691Z,100611.28
2022-11-16T14:36:53.547Z,100618.25
2022-11-16T14:39:43.400Z,100611.28
2022-11-16T14:42:26.953Z,100605.59
2022-11-16T14:45:14.051Z,100614.50
2022-11-16T14:47:40.885Z,100606.81
2022-11-16T14:50:27.269Z,100608.03
2022-11-16T14:52:59.609Z,100606.72
2022-11-16T14:55:27.213Z,100604.75
2022-11-16T14:58:10.334Z,100607.75
2022-11-16T15:00:38.378Z,100595.34
2022-11-16T15:03:06.079Z,100601.75
2022-11-16T15:05:36.662Z,100600.75
2022-11-16T15:08:18.571Z,100601.47
2022-11-16T15:10:52.151Z,100595.28
2022-11-16T15:13:22.184Z,100595.75
2022-11-16T15:15:50.205Z,100598.03
2022-11-16T15:18:19.331Z,100586.06
2022-11-16T15:20:52.919Z,100588.03
2022-11-16T15:23:20.457Z,100587.78
2022-11-16T15:25:53.331Z,100588.78
2022-11-16T15:28:31.726Z,100598.22
2022-11-16T15:31:01.290Z,100603.66
2022-11-16T15:33:37.907Z,100588.53
2022-11-16T15:36:24.635Z,100591.25
2022-11-16T15:38:57.346Z,100590.97
2022-11-16T15:41:24.590Z,100590.97
2022-11-16T15:44:13.281Z,100596.16
2022-11-16T15:46:41.502Z,100597.38
2022-11-16T15:49:23.435Z,100603.31
2022-11-16T15:51:49.916Z,100597.56
2022-11-16T15:54:27.156Z,100592.63
2022-11-16T15:56:57.028Z,100596.28
2022-11-16T15:59:28.135Z,100594.78
2022-11-16T16:01:55.052Z,100604.16
2022-11-16T16:04:21.932Z,100599.19
2022-11-16T16:06:54.199Z,100599.19
2022-11-16T16:09:23.731Z,100602.09
2022-11-16T16:11:50.559Z,100597.16
2022-11-16T16:14:29.520Z,100607.50
2022-11-16T16:16:58.674Z,100599.78
2022-11-16T16:19:36.147Z,100601.00
2022-11-16T16:22:04.595Z,100596.31
2022-11-16T16:24:37.374Z,100594.53
2022-11-16T16:27:10.172Z,100597.00
2022-11-16T16:29:36.682Z,100589.28
2022-11-16T16:32:03.320Z,100589.03
2022-11-16T16:34:29.800Z,100587.78
2022-11-16T16:36:56.292Z,100596.44
2022-11-16T16:39:22.799Z,100595.69
2022-11-16T16:41:49.532Z,100599.16
2022-11-16T16:44:16.407Z,100597.19
2022-11-16T16:46:43.028Z,100612.28
2022-11-16T16:49:09.538Z,100610.81
2022-11-16T16:51:36.021Z,100614.25
2022-11-16T16:54:02.696Z,100608.34
2022-11-16T16:56:29.203Z,100612.28
2022-11-16T16:58:58.652Z,100602.63
2022-11-16T17:01:26.693Z,100600.91
2022-11-16T17:03:53.248Z,100602.88
2022-11-16T17:06:19.992Z,100607.16
2022-11-16T17:08:46.563Z,100604.41
2022-11-16T17:11:15.570Z,100604.41
2022-11-16T17:13:42.173Z,100600.44
2022-11-16T17:16:08.958Z,100604.41
2022-11-16T17:18:35.564Z,100605.16
2022-11-16T17:21:11.321Z,100601.19
2022-11-16T17:23:38.097Z,100603.44
2022-11-16T17:26:06.860Z,100602.97
2022-11-16T17:28:34.268Z,100597.53
2022-11-16T17:31:02.175Z,100604.97
2022-11-16T17:33:28.655Z,100602.22
2022-11-16T17:35:56.837Z,100599.03
2022-11-16T17:38:23.942Z,100600.25
2022-11-16T17:40:50.472Z,100600.25
2022-11-16T17:43:16.994Z,100613.69
2022-11-16T17:45:43.465Z,100606.47
2022-11-16T17:48:09.931Z,100618.84
2022-11-16T17:50:36.392Z,100606.19
2022-11-16T17:53:02.951Z,100610.88
2022-11-16T17:55:29.401Z,100603.94
2022-11-16T17:57:57.274Z,100610.63
2022-11-16T18:00:23.837Z,100613.78
2022-11-16T18:02:50.285Z,100616.25
2022-11-16T18:05:16.867Z,100615.94
2022-11-16T18:07:43.361Z,100618.13
2022-11-16T18:10:12.692Z,100624.53
2022-11-16T18:12:41.584Z,100621.22
2022-11-16T18:15:27.431Z,100624.88
2022-11-16T18:17:56.138Z,100624.78
2022-11-16T18:20:24.245Z,100627.69
2022-11-16T18:22:50.738Z,100630.63
2022-11-16T18:25:17.370Z,100629.59
2022-11-16T18:27:43.846Z,100629.31
2022-11-16T18:30:10.746Z,100634.75
2022-11-16T18:32:37.282Z,100636.91
2022-11-16T18:35:09.446Z,100632.22
2022-11-16T18:37:36.388Z,100636.91
2022-11-16T18:40:04.488Z,100633.44
2022-11-16T18:42:30.987Z,100626.50
2022-11-16T18:44:57.525Z,100627.28
2022-11-16T18:47:24.038Z,100625.28
2022-11-16T18:49:50.515Z,100631.47
2022-11-16T18:52:17.111Z,100630.72
2022-11-16T18:54:43.607Z,100627.28
2022-11-16T18:57:10.215Z,100625.56
2022-11-16T18:59:36.665Z,100629.50
2022-11-16T19:02:03.196Z,100617.84
2022-11-16T19:04:29.885Z,100615.88
2022-11-16T19:06:56.441Z,100622.09
2022-11-16T19:09:23.004Z,100626.31
2022-11-16T19:11:51.670Z,100623.88
2022-11-16T19:14:18.244Z,100622.41
2022-11-16T19:16:52.620Z,100626.59
2022-11-16T19:19:22.276Z,100635.03
2022-11-16T19:21:48.940Z,100618.72
2022-11-16T19:24:15.436Z,100622.19
2022-11-16T19:26:41.989Z,100620.50
2022-11-16T19:29:08.525Z,100623.97
2022-11-16T19:31:35.050Z,100622.00
2022-11-16T19:34:04.906Z,100618.78
2022-11-16T19:36:33.609Z,100620.31
2022-11-16T19:39:00.216Z,100619.09
2022-11-16T19:41:27.784Z,100624.03
2022-11-16T19:43:58.778Z,100626.28
2022-11-16T19:46:27.131Z,100629.78
2022-11-16T19:48:54.599Z,100628.06
2022-11-16T19:51:26.397Z,100637.31
2022-11-16T19:53:53.227Z,100625.16
2022-11-16T19:56:21.531Z,100627.16
2022-11-16T19:58:48.277Z,100623.97
2022-11-16T20:01:24.661Z,100619.72
2022-11-16T20:03:51.643Z,100609.88
2022-11-16T20:06:21.417Z,100614.84
2022-11-16T20:08:50.514Z,100605.47
2022-11-16T20:11:20.571Z,100612.13
2022-11-16T20:13:48.262Z,100606.22
2022-11-16T20:16:15.784Z,100615.13
2022-11-16T20:18:43.490Z,100605.47
2022-11-16T20:21:29.519Z,100601.00
2022-11-16T20:24:03.078Z,100605.28
2022-11-16T20:26:33.926Z,100603.75
2022-11-16T20:29:00.541Z,100595.13
2022-11-16T20:31:29.411Z,100593.91
2022-11-16T20:34:04.641Z,100593.91
2022-11-16T20:36:33.046Z,100589.69
2022-11-16T20:39:01.121Z,100590.69
2022-11-16T20:41:32.605Z,100588.47
2022-11-16T20:44:01.723Z,100587.22
2022-11-16T20:46:33.397Z,100589.19
2022-11-16T20:49:01.762Z,100593.41
2022-11-16T20:51:29.298Z,100599.34
2022-11-16T20:53:56.035Z,100593.16
2022-11-16T20:56:23.211Z,100593.91
2022-11-16T20:58:50.470Z,100593.16
2022-11-16T21:01:19.854Z,100588.47
2022-11-16T21:03:46.719Z,100595.13
2022-11-16T21:06:14.252Z,100596.34
2022-11-16T21:08:41.542Z,100596.34
2022-11-16T21:11:29.134Z,100594.38
2022-11-16T21:14:14.991Z,100593.63
2022-11-16T21:16:41.546Z,100589.69
2022-11-16T21:19:08.293Z,100589.69
2022-11-16T21:21:35.057Z,100588.19
2022-11-16T21:24:01.886Z,100581.19
2022-11-16T21:26:30.534Z,100588.66
2022-11-16T21:28:59.406Z,100592.84
2022-11-16T21:31:29.781Z,100584.69
2022-11-16T21:33:56.881Z,100573.03
2022-11-16T21:36:28.516Z,100580.47
2022-11-16T21:38:55.624Z,100575.75
2022-11-16T21:41:23.637Z,100576.50
2022-11-16T21:43:50.339Z,100575.75
2022-11-16T21:46:19.052Z,100581.19
2022-11-16T21:48:47.978Z,100581.94
2022-11-16T21:51:17.043Z,100575.31
2022-11-16T21:53:44.118Z,100574.56
2022-11-16T21:56:13.857Z,100573.34
2022-11-16T21:58:41.063Z,100570.13
2022-11-16T22:01:08.491Z,100570.63
2022-11-16T22:03:35.520Z,100568.16
2022-11-16T22:06:23.106Z,100565.16
2022-11-16T22:08:49.874Z,100557.75
2022-11-16T22:11:17.148Z,100552.78
2022-11-16T22:13:44.146Z,100556.25
2022-11-16T22:16:12.626Z,100546.56
2022-11-16T22:18:39.513Z,100552.00
2022-11-16T22:21:06.786Z,100553.97
2022-11-16T22:23:33.701Z,100553.25
2022-11-16T22:26:08.426Z,100548.28
2022-11-16T22:28:35.903Z,100537.06
2022-11-16T22:31:04.496Z,100539.53
2022-11-16T22:33:31.564Z,100531.84
2022-11-16T22:35:58.196Z,100536.00
2022-11-16T22:38:25.347Z,100537.22
2022-11-16T22:40:53.337Z,100533.94
2022-11-16T22:43:21.669Z,100538.81
2022-11-16T22:45:48.471Z,100553.84
2022-11-16T22:48:15.962Z,100546.34
2022-11-16T22:50:42.783Z,100547.03
2022-11-16T22:53:10.444Z,100546.16
2022-11-16T22:55:38.725Z,100547.09
2022-11-16T22:58:05.721Z,100544.31
2022-11-16T23:00:38.985Z,100540.28
2022-11-16T23:03:08.517Z,100539.69
2022-11-16T23:05:35.051Z,100543.81
2022-11-16T23:08:01.522Z,100537.63
2022-11-16T23:10:28.955Z,100539.78
2022-11-16T23:13:13.999Z,100542.22
2022-11-16T23:15:49.263Z,100542.44
2022-11-16T23:18:16.459Z,100540.31
2022-11-16T23:21:01.417Z,100530.41
2022-11-16T23:23:46.839Z,100539.47
2022-11-16T23:26:39.855Z,100533.47
2022-11-16T23:29:09.109Z,100524.72
2022-11-16T23:31:36.747Z,100529.16
2022-11-16T23:34:03.886Z,100518.91
2022-11-16T23:36:30.388Z,100523.31
2022-11-16T23:38:56.856Z,100518.34
2022-11-16T23:41:44.414Z,100517.78
2022-11-16T23:44:10.887Z,100519.47
2022-11-16T23:46:37.359Z,100516.75
2022-11-16T23:49:03.930Z,100521.78
2022-11-16T23:51:30.432Z,100515.59
2022-11-16T23:53:56.943Z,100514.56
2022-11-16T23:56:23.766Z,100508.56
2022-11-16T23:58:50.350Z,100503.59
